createdAt,value
2023-05-09T00:00:24.499Z,0.00
2023-05-09T00:01:24.475Z,0.00
2023-05-09T00:02:24.653Z,0.00
2023-05-09T00:03:24.458Z,0.00
2023-05-09T00:04:24.452Z,0.00
2023-05-09T00:05:24.421Z,0.00
2023-05-09T00:06:24.411Z,0.00
2023-05-09T00:07:24.448Z,0.00
2023-05-09T00:08:24.389Z,0.00
2023-05-09T00:09:24.380Z,0.00
2023-05-09T00:10:24.370Z,0.00
2023-05-09T00:11:24.384Z,0.00
2023-05-09T00:12:24.355Z,0.00
2023-05-09T00:13:24.389Z,0.00
2023-05-09T00:14:24.323Z,0.00
2023-05-09T00:15:24.428Z,0.00
2023-05-09T00:16:24.442Z,0.00
2023-05-09T00:17:24.342Z,0.00
2023-05-09T00:18:24.296Z,0.00
2023-05-09T00:19:24.366Z,0.00
2023-05-09T00:20:24.276Z,0.00
2023-05-09T00:21:24.260Z,0.00
2023-05-09T00:22:24.247Z,0.00
2023-05-09T00:23:24.248Z,0.00
2023-05-09T00:24:24.217Z,0.00
2023-05-09T00:25:24.239Z,0.00
2023-05-09T00:26:24.226Z,0.00
2023-05-09T00:27:24.192Z,0.00
2023-05-09T00:28:24.169Z,0.00
2023-05-09T00:29:24.174Z,0.00
2023-05-09T00:30:24.166Z,0.00
2023-05-09T00:31:24.259Z,0.00
2023-05-09T00:32:24.215Z,0.00
2023-05-09T00:33:24.117Z,0.00
2023-05-09T00:34:24.118Z,0.00
2023-05-09T00:35:24.115Z,0.00
2023-05-09T00:36:24.092Z,0.00
2023-05-09T00:37:24.074Z,0.00
2023-05-09T00:38:24.071Z,0.00
2023-05-09T00:39:24.115Z,0.00
2023-05-09T00:40:24.054Z,0.00
2023-05-09T00:41:24.028Z,0.00
2023-05-09T00:42:24.018Z,0.00
2023-05-09T00:43:24.012Z,0.00
2023-05-09T00:44:24.021Z,0.00
2023-05-09T00:45:23.991Z,0.00
2023-05-09T00:46:24.003Z,0.00
2023-05-09T00:47:24.147Z,0.00
2023-05-09T00:48:23.960Z,0.00
2023-05-09T00:49:23.991Z,0.00
2023-05-09T00:50:23.935Z,0.00
2023-05-09T00:51:23.922Z,0.00
2023-05-09T00:52:23.921Z,0.00
2023-05-09T00:53:23.920Z,0.00
2023-05-09T00:54:23.924Z,0.00
2023-05-09T00:55:23.878Z,0.00
2023-05-09T00:56:23.873Z,0.00
2023-05-09T00:57:23.861Z,0.00
2023-05-09T00:58:23.858Z,0.00
2023-05-09T00:59:23.847Z,0.00
2023-05-09T01:00:23.827Z,0.00
2023-05-09T01:01:23.896Z,0.00
2023-05-09T01:02:23.957Z,0.00
2023-05-09T01:03:24.091Z,0.00
2023-05-09T01:04:23.782Z,0.00
2023-05-09T01:05:23.772Z,0.00
2023-05-09T01:06:23.765Z,0.00
2023-05-09T01:07:23.761Z,0.00
2023-05-09T01:08:23.750Z,0.00
2023-05-09T01:09:23.733Z,0.00
2023-05-09T01:10:23.714Z,0.00
2023-05-09T01:11:23.707Z,0.00
2023-05-09T01:12:23.714Z,0.00
2023-05-09T01:13:23.804Z,0.00
2023-05-09T01:14:23.669Z,0.00
2023-05-09T01:15:23.664Z,0.00
2023-05-09T01:16:23.856Z,0.00
2023-05-09T01:17:23.651Z,0.00
2023-05-09T01:18:23.627Z,0.00
2023-05-09T01:19:23.728Z,0.00
2023-05-09T01:20:23.627Z,0.00
2023-05-09T01:21:23.614Z,0.00
2023-05-09T01:22:23.592Z,0.00
2023-05-09T01:23:23.582Z,0.00
2023-05-09T01:24:23.572Z,0.00
2023-05-09T01:25:23.556Z,0.00
2023-05-09T01:26:23.572Z,0.00
2023-05-09T01:27:23.541Z,0.00
2023-05-09T01:28:23.520Z,0.00
2023-05-09T01:29:23.504Z,0.00
2023-05-09T01:30:23.496Z,0.00
2023-05-09T01:31:23.540Z,0.00
2023-05-09T01:32:23.517Z,0.00
2023-05-09T01:33:23.465Z,0.00
2023-05-09T01:34:23.471Z,0.00
2023-05-09T01:35:23.559Z,0.00
2023-05-09T01:36:23.446Z,0.00
2023-05-09T01:37:23.439Z,0.00
2023-05-09T01:38:23.420Z,0.00
2023-05-09T01:39:23.400Z,0.00
2023-05-09T01:40:23.417Z,0.00
2023-05-09T01:41:23.400Z,0.00
2023-05-09T01:42:23.395Z,0.00
2023-05-09T01:43:23.357Z,0.00
2023-05-09T01:44:23.349Z,0.00
2023-05-09T01:45:23.334Z,0.00
2023-05-09T01:46:23.417Z,0.00
2023-05-09T01:47:23.351Z,0.00
2023-05-09T01:48:23.313Z,0.00
2023-05-09T01:49:23.294Z,0.00
2023-05-09T01:50:23.292Z,0.00
2023-05-09T01:51:23.403Z,0.00
2023-05-09T01:52:23.265Z,0.00
2023-05-09T01:53:23.253Z,0.00
2023-05-09T01:54:23.241Z,0.00
2023-05-09T01:55:23.240Z,0.00
2023-05-09T01:56:23.213Z,0.00
2023-05-09T01:57:23.208Z,0.00
2023-05-09T01:58:23.194Z,0.00
2023-05-09T01:59:23.205Z,0.00
2023-05-09T02:00:23.173Z,0.00
2023-05-09T02:01:23.174Z,0.00
2023-05-09T02:02:23.240Z,0.00
2023-05-09T02:03:23.199Z,0.00
2023-05-09T02:04:23.148Z,0.00
2023-05-09T02:05:23.143Z,0.00
2023-05-09T02:06:23.107Z,0.00
2023-05-09T02:07:23.224Z,0.00
2023-05-09T02:08:23.099Z,0.00
2023-05-09T02:09:23.094Z,0.00
2023-05-09T02:10:23.064Z,0.00
2023-05-09T02:11:23.057Z,0.00
2023-05-09T02:12:23.067Z,0.00
2023-05-09T02:13:23.182Z,0.00
2023-05-09T02:14:23.028Z,0.00
2023-05-09T02:15:23.009Z,0.00
2023-05-09T02:16:23.042Z,0.00
2023-05-09T02:17:23.150Z,0.00
2023-05-09T02:18:22.992Z,0.00
2023-05-09T02:19:22.976Z,0.00
2023-05-09T02:20:22.966Z,0.00
2023-05-09T02:21:22.947Z,0.00
2023-05-09T02:22:22.946Z,0.00
2023-05-09T02:23:23.101Z,0.00
2023-05-09T02:24:22.912Z,0.00
2023-05-09T02:25:22.901Z,0.00
2023-05-09T02:26:22.889Z,0.00
2023-05-09T02:27:22.892Z,0.00
2023-05-09T02:28:22.877Z,0.00
2023-05-09T02:29:22.878Z,0.00
2023-05-09T02:30:22.916Z,0.00
2023-05-09T02:31:22.893Z,0.00
2023-05-09T02:32:22.852Z,0.00
2023-05-09T02:33:22.812Z,0.00
2023-05-09T02:34:22.805Z,0.00
2023-05-09T02:35:22.801Z,0.00
2023-05-09T02:36:22.798Z,0.00
2023-05-09T02:37:22.780Z,0.00
2023-05-09T02:38:22.765Z,0.00
2023-05-09T02:39:22.860Z,0.00
2023-05-09T02:40:22.745Z,0.00
2023-05-09T02:41:22.742Z,0.00
2023-05-09T02:42:22.752Z,0.00
2023-05-09T02:43:22.704Z,0.00
2023-05-09T02:44:22.697Z,4.00
2023-05-09T02:45:22.692Z,4.00
2023-05-09T02:46:22.739Z,0.00
2023-05-09T02:47:22.713Z,0.00
2023-05-09T02:48:22.666Z,4.00
2023-05-09T02:49:31.621Z,4.00
2023-05-09T02:50:23.640Z,0.00
2023-05-09T02:51:22.647Z,4.00
2023-05-09T02:52:22.616Z,0.00
2023-05-09T02:53:22.608Z,4.00
2023-05-09T02:54:22.592Z,4.00
2023-05-09T02:55:22.735Z,4.00
2023-05-09T02:56:22.631Z,4.00
2023-05-09T02:57:22.558Z,8.00
2023-05-09T02:58:22.548Z,8.00
2023-05-09T02:59:22.553Z,8.00
2023-05-09T03:00:22.534Z,8.00
2023-05-09T03:01:22.546Z,12.00
2023-05-09T03:02:22.570Z,12.00
2023-05-09T03:03:22.610Z,12.00
2023-05-09T03:04:22.484Z,12.00
2023-05-09T03:05:22.483Z,16.00
2023-05-09T03:06:22.509Z,20.00
2023-05-09T03:07:22.463Z,24.00
2023-05-09T03:08:22.448Z,28.00
2023-05-09T03:09:22.458Z,28.00
2023-05-09T03:10:22.427Z,32.00
2023-05-09T03:11:22.522Z,36.00
2023-05-09T03:12:22.400Z,40.00
2023-05-09T03:13:22.438Z,44.00
2023-05-09T03:14:22.387Z,52.00
2023-05-09T03:15:22.362Z,56.00
2023-05-09T03:16:22.411Z,64.00
2023-05-09T03:17:22.347Z,68.00
2023-05-09T03:18:22.330Z,76.00
2023-05-09T03:19:22.359Z,84.00
2023-05-09T03:20:22.312Z,92.00
2023-05-09T03:21:22.306Z,96.00
2023-05-09T03:22:22.294Z,104.00
2023-05-09T03:23:22.302Z,116.00
2023-05-09T03:24:22.282Z,124.00
2023-05-09T03:25:22.300Z,136.00
2023-05-09T03:26:22.248Z,148.00
2023-05-09T03:27:22.368Z,160.00
2023-05-09T03:28:22.294Z,172.00
2023-05-09T03:29:22.215Z,192.00
2023-05-09T03:30:22.226Z,212.00
2023-05-09T03:31:22.228Z,228.00
2023-05-09T03:32:22.281Z,252.00
2023-05-09T03:33:22.186Z,272.00
2023-05-09T03:34:22.161Z,300.00
2023-05-09T03:35:22.159Z,336.00
2023-05-09T03:36:22.140Z,368.00
2023-05-09T03:37:22.138Z,400.00
2023-05-09T03:38:22.128Z,436.00
2023-05-09T03:39:22.116Z,468.00
2023-05-09T03:40:22.121Z,504.00
2023-05-09T03:41:22.093Z,540.00
2023-05-09T03:42:22.094Z,576.00
2023-05-09T03:43:22.182Z,604.00
2023-05-09T03:44:22.062Z,628.00
2023-05-09T03:45:22.042Z,656.00
2023-05-09T03:46:22.055Z,656.00
2023-05-09T03:47:22.036Z,668.00
2023-05-09T03:48:22.016Z,684.00
2023-05-09T03:49:21.998Z,700.00
2023-05-09T03:50:21.986Z,716.00
2023-05-09T03:51:21.993Z,732.00
2023-05-09T03:52:21.990Z,732.00
2023-05-09T03:53:21.980Z,752.00
2023-05-09T03:54:21.949Z,824.00
2023-05-09T03:55:21.934Z,868.00
2023-05-09T03:56:21.941Z,920.00
2023-05-09T03:57:21.908Z,848.00
2023-05-09T03:58:21.912Z,812.00
2023-05-09T03:59:22.018Z,816.00
2023-05-09T04:00:21.888Z,868.00
2023-05-09T04:01:21.901Z,880.00
2023-05-09T04:02:21.969Z,868.00
2023-05-09T04:03:21.905Z,904.00
2023-05-09T04:04:21.837Z,960.00
2023-05-09T04:05:21.836Z,1052.00
2023-05-09T04:06:21.825Z,1108.00
2023-05-09T04:07:21.807Z,1112.00
2023-05-09T04:08:21.861Z,1160.00
2023-05-09T04:09:21.781Z,1160.00
2023-05-09T04:10:21.782Z,1204.00
2023-05-09T04:11:21.755Z,1208.00
2023-05-09T04:12:21.751Z,1264.00
2023-05-09T04:13:21.790Z,1292.00
2023-05-09T04:14:21.754Z,1360.00
2023-05-09T04:15:21.841Z,1428.00
2023-05-09T04:16:21.741Z,1668.00
2023-05-09T04:17:21.719Z,1660.00
2023-05-09T04:18:21.702Z,1652.00
2023-05-09T04:19:21.676Z,1688.00
2023-05-09T04:20:21.667Z,1556.00
2023-05-09T04:21:21.650Z,1540.00
2023-05-09T04:22:21.669Z,1852.00
2023-05-09T04:23:21.628Z,2752.00
2023-05-09T04:24:21.622Z,4112.00
2023-05-09T04:25:21.609Z,3232.00
2023-05-09T04:26:21.599Z,2144.00
2023-05-09T04:27:21.611Z,2264.00
2023-05-09T04:28:21.575Z,3744.00
2023-05-09T04:29:21.566Z,4240.00
2023-05-09T04:30:21.558Z,3172.00
2023-05-09T04:31:21.778Z,2144.00
2023-05-09T04:32:21.532Z,3624.00
2023-05-09T04:33:21.533Z,2276.00
2023-05-09T04:34:21.523Z,1896.00
2023-05-09T04:35:21.820Z,2240.00
2023-05-09T04:36:21.500Z,3312.00
2023-05-09T04:37:21.476Z,3600.00
2023-05-09T04:38:21.479Z,2120.00
2023-05-09T04:39:21.466Z,1948.00
2023-05-09T04:40:21.453Z,2244.00
2023-05-09T04:41:21.464Z,2224.00
2023-05-09T04:42:21.423Z,2280.00
2023-05-09T04:43:21.430Z,2472.00
2023-05-09T04:44:21.403Z,2372.00
2023-05-09T04:45:21.396Z,2184.00
2023-05-09T04:46:23.137Z,2808.00
2023-05-09T04:47:21.533Z,2636.00
2023-05-09T04:48:21.378Z,2520.00
2023-05-09T04:49:21.347Z,2608.00
2023-05-09T04:50:21.336Z,2400.00
2023-05-09T04:51:21.330Z,2932.00
2023-05-09T04:52:21.335Z,2672.00
2023-05-09T04:53:21.303Z,2800.00
2023-05-09T04:54:21.302Z,2852.00
2023-05-09T04:55:21.295Z,2932.00
2023-05-09T04:56:21.275Z,2640.00
2023-05-09T04:57:21.303Z,2428.00
2023-05-09T04:58:21.269Z,2556.00
2023-05-09T04:59:21.256Z,2588.00
2023-05-09T05:00:21.252Z,2608.00
2023-05-09T05:01:21.294Z,2656.00
2023-05-09T05:02:21.309Z,2660.00
2023-05-09T05:03:21.323Z,2460.00
2023-05-09T05:04:21.248Z,2780.00
2023-05-09T05:05:25.091Z,2720.00
2023-05-09T05:06:21.203Z,2564.00
2023-05-09T05:07:21.151Z,2488.00
2023-05-09T05:08:21.143Z,2560.00
2023-05-09T05:09:21.140Z,2512.00
2023-05-09T05:10:21.135Z,2684.00
2023-05-09T05:11:21.118Z,2700.00
2023-05-09T05:12:21.103Z,2568.00
2023-05-09T05:13:21.199Z,2580.00
2023-05-09T05:14:21.080Z,2568.00
2023-05-09T05:15:21.073Z,2600.00
2023-05-09T05:16:21.125Z,2648.00
2023-05-09T05:17:21.045Z,2816.00
2023-05-09T05:18:21.047Z,2880.00
2023-05-09T05:19:21.045Z,2844.00
2023-05-09T05:20:21.030Z,2908.00
2023-05-09T05:21:21.001Z,2856.00
2023-05-09T05:22:21.017Z,2956.00
2023-05-09T05:23:20.986Z,2860.00
2023-05-09T05:24:20.971Z,3028.00
2023-05-09T05:25:20.981Z,3240.00
2023-05-09T05:26:20.953Z,3416.00
2023-05-09T05:27:20.943Z,2980.00
2023-05-09T05:28:20.924Z,3184.00
2023-05-09T05:29:20.936Z,3052.00
2023-05-09T05:30:20.958Z,3020.00
2023-05-09T05:31:20.923Z,3044.00
2023-05-09T05:32:20.883Z,3228.00
2023-05-09T05:33:20.881Z,3540.00
2023-05-09T05:34:20.909Z,3488.00
2023-05-09T05:35:20.962Z,3820.00
2023-05-09T05:36:20.860Z,4160.00
2023-05-09T05:37:20.824Z,4220.00
2023-05-09T05:38:20.836Z,4276.00
2023-05-09T05:39:20.825Z,4380.00
2023-05-09T05:40:20.799Z,4336.00
2023-05-09T05:41:20.778Z,4256.00
2023-05-09T05:42:20.776Z,4276.00
2023-05-09T05:43:20.787Z,4124.00
2023-05-09T05:44:20.749Z,3800.00
2023-05-09T05:45:20.740Z,3680.00
2023-05-09T05:46:20.748Z,3540.00
2023-05-09T05:47:20.713Z,3488.00
2023-05-09T05:48:20.713Z,3332.00
2023-05-09T05:49:20.692Z,3440.00
2023-05-09T05:50:20.685Z,3580.00
2023-05-09T05:51:20.782Z,3588.00
2023-05-09T05:52:20.677Z,3380.00
2023-05-09T05:53:20.652Z,3276.00
2023-05-09T05:54:20.635Z,3284.00
2023-05-09T05:55:20.632Z,3192.00
2023-05-09T05:56:20.638Z,3408.00
2023-05-09T05:57:20.603Z,3276.00
2023-05-09T05:58:20.597Z,3336.00
2023-05-09T05:59:20.585Z,3304.00
2023-05-09T06:00:20.603Z,3448.00
2023-05-09T06:01:20.590Z,3420.00
2023-05-09T06:02:20.562Z,3472.00
2023-05-09T06:03:20.620Z,3480.00
2023-05-09T06:04:20.622Z,3520.00
2023-05-09T06:05:20.552Z,3548.00
2023-05-09T06:06:20.520Z,3568.00
2023-05-09T06:07:20.643Z,3764.00
2023-05-09T06:08:20.486Z,3668.00
2023-05-09T06:09:20.473Z,3704.00
2023-05-09T06:10:20.467Z,3992.00
2023-05-09T06:11:20.476Z,3908.00
2023-05-09T06:12:20.444Z,3936.00
2023-05-09T06:13:20.465Z,4000.00
2023-05-09T06:14:20.420Z,3928.00
2023-05-09T06:15:20.407Z,4120.00
2023-05-09T06:16:20.737Z,4464.00
2023-05-09T06:17:20.438Z,4488.00
2023-05-09T06:18:20.376Z,4124.00
2023-05-09T06:19:20.363Z,4160.00
2023-05-09T06:20:20.370Z,3984.00
2023-05-09T06:21:20.358Z,3940.00
2023-05-09T06:22:20.374Z,4244.00
2023-05-09T06:23:20.459Z,4824.00
2023-05-09T06:24:34.365Z,4628.00
2023-05-09T06:25:21.334Z,4976.00
2023-05-09T06:26:20.290Z,5100.00
2023-05-09T06:27:20.277Z,4300.00
2023-05-09T06:28:20.270Z,4168.00
2023-05-09T06:29:20.293Z,4476.00
2023-05-09T06:31:20.312Z,5100.00
2023-05-09T06:32:20.231Z,4632.00
2023-05-09T06:33:20.211Z,5252.00
2023-05-09T06:34:20.225Z,14656.00
2023-05-09T06:35:20.225Z,4756.00
2023-05-09T06:36:20.192Z,12128.00
2023-05-09T06:37:20.176Z,18432.00
2023-05-09T06:38:20.165Z,7964.00
2023-05-09T06:39:20.285Z,9304.00
2023-05-09T06:40:20.152Z,6252.00
2023-05-09T06:41:20.135Z,11804.00
2023-05-09T06:42:20.121Z,9804.00
2023-05-09T06:43:20.108Z,8412.00
2023-05-09T06:44:20.113Z,5980.00
2023-05-09T06:45:20.272Z,5144.00
2023-05-09T06:46:20.153Z,5628.00
2023-05-09T06:47:20.068Z,5936.00
2023-05-09T06:48:20.061Z,11252.00
2023-05-09T06:49:20.170Z,11776.00
2023-05-09T06:50:20.039Z,12096.00
2023-05-09T06:51:20.054Z,11896.00
2023-05-09T06:52:20.013Z,11588.00
2023-05-09T06:53:20.094Z,11084.00
2023-05-09T06:54:19.991Z,10980.00
2023-05-09T06:55:20.095Z,10356.00
2023-05-09T06:56:20.121Z,10040.00
2023-05-09T06:57:19.976Z,9684.00
2023-05-09T06:58:19.963Z,9480.00
2023-05-09T06:59:19.948Z,9352.00
2023-05-09T07:00:19.930Z,9220.00
2023-05-09T07:01:19.946Z,9144.00
2023-05-09T07:02:19.912Z,9032.00
2023-05-09T07:03:19.906Z,8972.00
2023-05-09T07:04:19.880Z,9052.00
2023-05-09T07:05:19.896Z,9096.00
2023-05-09T07:06:19.869Z,9052.00
2023-05-09T07:07:19.870Z,9080.00
2023-05-09T07:08:19.848Z,9012.00
2023-05-09T07:09:19.845Z,9128.00
2023-05-09T07:10:19.824Z,9096.00
2023-05-09T07:11:19.926Z,9108.00
2023-05-09T07:12:19.815Z,9160.00
2023-05-09T07:13:19.910Z,9288.00
2023-05-09T07:14:19.785Z,9296.00
2023-05-09T07:15:29.021Z,9148.00
2023-05-09T07:16:20.820Z,9424.00
2023-05-09T07:17:23.431Z,9512.00
2023-05-09T07:18:19.775Z,9556.00
2023-05-09T07:19:19.729Z,9648.00
2023-05-09T07:20:19.736Z,9812.00
2023-05-09T07:21:19.726Z,10048.00
2023-05-09T07:22:19.711Z,10184.00
2023-05-09T07:23:19.679Z,10252.00
2023-05-09T07:24:19.673Z,10424.00
2023-05-09T07:25:19.690Z,10848.00
2023-05-09T07:26:19.662Z,11632.00
2023-05-09T07:27:19.760Z,12608.00
2023-05-09T07:28:19.638Z,14304.00
2023-05-09T07:29:19.617Z,16064.00
2023-05-09T07:30:19.620Z,17408.00
2023-05-09T07:31:19.721Z,17920.00
2023-05-09T07:32:19.583Z,19872.00
2023-05-09T07:33:19.576Z,22976.00
2023-05-09T07:34:19.559Z,24800.00
2023-05-09T07:35:19.578Z,24736.00
2023-05-09T07:36:19.537Z,24512.00
2023-05-09T07:37:19.533Z,24256.00
2023-05-09T07:38:19.514Z,23904.00
2023-05-09T07:39:19.511Z,24576.00
2023-05-09T07:40:19.577Z,25792.00
2023-05-09T07:41:19.497Z,26720.00
2023-05-09T07:42:19.470Z,28448.00
2023-05-09T07:43:19.486Z,28288.00
2023-05-09T07:44:19.450Z,27680.00
2023-05-09T07:45:22.016Z,25888.00
2023-05-09T07:46:19.468Z,26240.00
2023-05-09T07:47:19.414Z,29216.00
2023-05-09T07:48:19.408Z,31488.00
2023-05-09T07:49:19.411Z,31040.00
2023-05-09T07:50:19.381Z,30528.00
2023-05-09T07:51:19.378Z,30048.00
2023-05-09T07:52:19.380Z,29824.00
2023-05-09T07:53:19.383Z,30688.00
2023-05-09T07:54:19.364Z,31904.00
2023-05-09T07:55:19.338Z,31872.00
2023-05-09T07:56:19.316Z,31808.00
2023-05-09T07:57:19.308Z,31872.00
2023-05-09T07:58:19.315Z,31488.00
2023-05-09T07:59:19.432Z,30048.00
2023-05-09T08:00:19.280Z,29312.00
2023-05-09T08:01:19.268Z,28928.00
2023-05-09T08:02:19.273Z,28896.00
2023-05-09T08:03:19.366Z,28480.00
2023-05-09T08:04:19.272Z,28896.00
2023-05-09T08:05:19.225Z,29664.00
2023-05-09T08:06:19.218Z,30816.00
2023-05-09T08:07:19.204Z,31232.00
2023-05-09T08:08:19.204Z,30496.00
2023-05-09T08:09:19.186Z,29056.00
2023-05-09T08:10:19.166Z,28768.00
2023-05-09T08:11:19.177Z,29280.00
2023-05-09T08:12:19.211Z,29728.00
2023-05-09T08:13:19.201Z,29664.00
2023-05-09T08:14:19.137Z,30048.00
2023-05-09T08:15:19.250Z,29568.00
2023-05-09T08:16:19.139Z,29440.00
2023-05-09T08:17:19.122Z,30048.00
2023-05-09T08:18:19.091Z,29888.00
2023-05-09T08:19:19.090Z,29600.00
2023-05-09T08:20:19.077Z,29184.00
2023-05-09T08:21:20.817Z,30144.00
2023-05-09T08:22:19.134Z,30144.00
2023-05-09T08:23:19.077Z,29056.00
2023-05-09T08:24:19.024Z,28992.00
2023-05-09T08:25:19.064Z,29312.00
2023-05-09T08:26:19.014Z,29760.00
2023-05-09T08:27:19.073Z,30592.00
2023-05-09T08:28:18.983Z,31264.00
2023-05-09T08:29:18.996Z,32128.00
2023-05-09T08:30:18.968Z,32864.00
2023-05-09T08:31:19.141Z,32256.00
2023-05-09T08:32:18.944Z,31520.00
2023-05-09T08:33:18.933Z,29920.00
2023-05-09T08:34:18.939Z,29920.00
2023-05-09T08:35:18.913Z,29920.00
2023-05-09T08:36:18.916Z,30176.00
2023-05-09T08:37:18.899Z,30208.00
2023-05-09T08:38:18.883Z,30976.00
2023-05-09T08:39:18.884Z,31552.00
2023-05-09T08:40:18.873Z,31648.00
2023-05-09T08:41:18.872Z,31328.00
2023-05-09T08:42:18.840Z,31264.00
2023-05-09T08:43:18.829Z,31136.00
2023-05-09T08:44:18.822Z,32416.00
2023-05-09T08:45:18.824Z,33536.00
2023-05-09T08:46:18.809Z,33728.00
2023-05-09T08:47:18.915Z,32864.00
2023-05-09T08:48:18.791Z,32192.00
2023-05-09T08:49:18.767Z,33536.00
2023-05-09T08:50:19.052Z,35424.00
2023-05-09T08:51:18.755Z,36896.00
2023-05-09T08:52:18.734Z,37568.00
2023-05-09T08:53:18.728Z,38016.00
2023-05-09T08:54:20.082Z,38752.00
2023-05-09T08:55:18.712Z,40384.00
2023-05-09T08:56:18.690Z,40256.00
2023-05-09T08:57:18.687Z,40512.00
2023-05-09T08:58:18.671Z,41088.00
2023-05-09T08:59:18.686Z,41408.00
2023-05-09T09:00:20.426Z,41856.00
2023-05-09T09:01:18.698Z,41344.00
2023-05-09T09:02:18.632Z,40064.00
2023-05-09T09:03:18.743Z,40832.00
2023-05-09T09:04:18.704Z,42304.00
2023-05-09T09:05:39.334Z,42208.00
2023-05-09T09:06:19.584Z,43008.00
2023-05-09T09:07:18.575Z,44128.00
2023-05-09T09:08:18.592Z,44512.00
2023-05-09T09:09:18.594Z,43904.00
2023-05-09T09:10:18.572Z,43072.00
2023-05-09T09:11:18.582Z,43456.00
2023-05-09T09:12:18.538Z,45184.00
2023-05-09T09:13:18.573Z,47360.00
2023-05-09T09:14:18.526Z,47200.00
2023-05-09T09:15:18.488Z,46496.00
2023-05-09T09:16:18.552Z,47552.00
2023-05-09T09:17:18.466Z,49824.00
2023-05-09T09:18:18.475Z,50240.00
2023-05-09T09:19:18.577Z,47936.00
2023-05-09T09:20:18.434Z,47584.00
2023-05-09T09:21:18.424Z,47200.00
2023-05-09T09:22:18.438Z,47616.00
2023-05-09T09:23:18.438Z,47872.00
2023-05-09T09:24:18.429Z,48000.00
2023-05-09T09:25:18.383Z,49312.00
2023-05-09T09:26:18.378Z,50112.00
2023-05-09T09:27:18.414Z,49312.00
2023-05-09T09:28:18.356Z,49824.00
2023-05-09T09:29:18.340Z,50816.00
2023-05-09T09:30:18.328Z,50912.00
2023-05-09T09:31:18.374Z,48320.00
2023-05-09T09:32:18.429Z,46656.00
2023-05-09T09:33:18.300Z,45248.00
2023-05-09T09:34:18.307Z,44704.00
2023-05-09T09:35:18.421Z,43392.00
2023-05-09T09:36:18.310Z,43936.00
2023-05-09T09:37:18.328Z,43872.00
2023-05-09T09:38:18.258Z,43744.00
2023-05-09T09:39:18.247Z,42528.00
2023-05-09T09:40:18.347Z,42176.00
2023-05-09T09:41:18.220Z,44000.00
2023-05-09T09:42:18.254Z,45536.00
2023-05-09T09:43:18.197Z,45472.00
2023-05-09T09:44:18.234Z,45536.00
2023-05-09T09:45:18.201Z,45344.00
2023-05-09T09:46:18.213Z,44064.00
2023-05-09T09:47:18.167Z,45472.00
2023-05-09T09:48:18.142Z,47040.00
2023-05-09T09:49:18.130Z,47136.00
2023-05-09T09:50:18.432Z,46944.00
2023-05-09T09:51:18.252Z,47136.00
2023-05-09T09:52:18.096Z,46048.00
2023-05-09T09:53:18.086Z,45056.00
2023-05-09T09:54:18.110Z,44320.00
2023-05-09T09:55:18.090Z,44416.00
2023-05-09T09:56:18.081Z,43904.00
2023-05-09T09:57:18.071Z,47424.00
2023-05-09T09:58:18.047Z,47104.00
2023-05-09T09:59:18.043Z,46304.00
2023-05-09T10:00:18.092Z,45920.00
2023-05-09T10:01:18.082Z,46976.00
2023-05-09T10:02:17.999Z,45824.00
2023-05-09T10:03:18.065Z,46048.00
2023-05-09T10:04:17.988Z,45952.00
2023-05-09T10:05:18.045Z,45184.00
2023-05-09T10:06:17.962Z,46016.00
2023-05-09T10:07:18.074Z,45760.00
2023-05-09T10:08:17.959Z,44672.00
2023-05-09T10:09:17.936Z,45792.00
2023-05-09T10:10:18.002Z,48608.00
2023-05-09T10:11:17.904Z,38208.00
2023-05-09T10:12:17.888Z,47232.00
2023-05-09T10:13:17.954Z,46496.00
2023-05-09T10:14:17.892Z,48128.00
2023-05-09T10:15:17.858Z,46592.00
2023-05-09T10:16:21.354Z,47296.00
2023-05-09T10:17:18.917Z,48032.00
2023-05-09T10:18:17.994Z,47808.00
2023-05-09T10:19:17.848Z,48608.00
2023-05-09T10:20:17.800Z,49088.00
2023-05-09T10:21:17.868Z,50528.00
2023-05-09T10:22:17.835Z,48928.00
2023-05-09T10:23:17.952Z,34048.00
2023-05-09T10:24:17.768Z,12680.00
2023-05-09T10:25:17.780Z,4524.00
2023-05-09T10:26:17.745Z,4288.00
2023-05-09T10:27:17.761Z,4148.00
2023-05-09T10:28:17.734Z,4032.00
2023-05-09T10:29:17.709Z,3972.00
2023-05-09T10:30:17.702Z,3868.00
2023-05-09T10:31:17.723Z,3888.00
2023-05-09T10:32:17.738Z,3804.00
2023-05-09T10:33:17.711Z,3792.00
2023-05-09T10:34:17.653Z,3772.00
2023-05-09T10:35:17.812Z,3772.00
2023-05-09T10:36:17.637Z,3776.00
2023-05-09T10:37:17.635Z,3768.00
2023-05-09T10:38:17.608Z,3752.00
2023-05-09T10:39:17.726Z,3760.00
2023-05-09T10:40:17.625Z,3704.00
2023-05-09T10:41:17.580Z,3728.00
2023-05-09T10:42:17.568Z,3700.00
2023-05-09T10:43:17.582Z,3696.00
2023-05-09T10:44:17.564Z,3676.00
2023-05-09T10:45:17.697Z,3688.00
2023-05-09T10:46:17.649Z,3656.00
2023-05-09T10:47:17.575Z,3596.00
2023-05-09T10:48:17.498Z,3616.00
2023-05-09T10:49:17.488Z,3592.00
2023-05-09T10:50:17.515Z,3576.00
2023-05-09T10:51:17.494Z,3616.00
2023-05-09T10:52:17.482Z,3572.00
2023-05-09T10:53:17.455Z,3568.00
2023-05-09T10:54:17.437Z,3560.00
2023-05-09T10:55:17.536Z,3556.00
2023-05-09T10:56:17.426Z,3548.00
2023-05-09T10:57:17.407Z,3496.00
2023-05-09T10:58:17.402Z,3504.00
2023-05-09T10:59:17.380Z,3464.00
2023-05-09T11:00:17.367Z,3496.00
2023-05-09T11:01:17.427Z,3484.00
2023-05-09T11:02:17.349Z,3524.00
2023-05-09T11:03:17.378Z,3464.00
2023-05-09T11:04:17.347Z,3432.00
2023-05-09T11:05:17.450Z,3428.00
2023-05-09T11:06:17.319Z,3400.00
2023-05-09T11:07:17.298Z,3388.00
2023-05-09T11:08:17.288Z,3404.00
2023-05-09T11:09:17.281Z,3380.00
2023-05-09T11:10:17.275Z,3380.00
2023-05-09T11:11:17.376Z,3340.00
2023-05-09T11:12:17.248Z,3332.00
2023-05-09T11:13:17.263Z,3320.00
2023-05-09T11:14:17.222Z,3356.00
2023-05-09T11:15:17.246Z,3328.00
2023-05-09T11:16:17.240Z,3384.00
2023-05-09T11:17:17.190Z,3308.00
2023-05-09T11:18:18.847Z,3292.00
2023-05-09T11:19:17.204Z,3316.00
2023-05-09T11:20:17.176Z,3268.00
2023-05-09T11:21:17.148Z,3292.00
2023-05-09T11:22:17.152Z,3304.00
2023-05-09T11:23:17.132Z,3264.00
2023-05-09T11:24:17.129Z,3212.00
2023-05-09T11:25:17.489Z,3236.00
2023-05-09T11:26:17.127Z,3276.00
2023-05-09T11:27:17.199Z,3276.00
2023-05-09T11:28:17.072Z,3272.00
2023-05-09T11:29:17.073Z,3280.00
2023-05-09T11:30:17.085Z,3248.00
2023-05-09T11:31:17.051Z,3224.00
2023-05-09T11:32:17.186Z,3228.00
2023-05-09T11:33:17.070Z,3204.00
2023-05-09T11:34:17.035Z,3204.00
2023-05-09T11:35:17.294Z,3200.00
2023-05-09T11:36:16.991Z,3148.00
2023-05-09T11:37:16.975Z,3184.00
2023-05-09T11:38:16.967Z,3112.00
2023-05-09T11:39:16.951Z,3148.00
2023-05-09T11:40:16.978Z,3192.00
2023-05-09T11:41:16.930Z,3112.00
2023-05-09T11:42:16.927Z,3136.00
2023-05-09T11:43:17.024Z,3112.00
2023-05-09T11:44:16.904Z,3128.00
2023-05-09T11:45:17.104Z,3132.00
2023-05-09T11:46:16.907Z,3120.00
2023-05-09T11:47:16.900Z,3112.00
2023-05-09T11:48:16.874Z,3112.00
2023-05-09T11:49:16.852Z,3084.00
2023-05-09T11:50:16.836Z,3080.00
2023-05-09T11:51:16.822Z,3028.00
2023-05-09T11:52:16.830Z,3076.00
2023-05-09T11:53:16.802Z,3032.00
2023-05-09T11:54:16.813Z,3052.00
2023-05-09T11:55:16.991Z,3028.00
2023-05-09T11:56:16.784Z,3032.00
2023-05-09T11:57:16.781Z,3012.00
2023-05-09T11:58:16.749Z,3020.00
2023-05-09T11:59:16.861Z,2996.00
2023-05-09T12:00:16.723Z,2988.00
2023-05-09T12:01:16.727Z,2992.00
2023-05-09T12:02:16.828Z,2984.00
2023-05-09T12:03:16.896Z,2956.00
2023-05-09T12:04:16.706Z,2952.00
2023-05-09T12:05:16.912Z,2932.00
2023-05-09T12:06:16.707Z,2944.00
2023-05-09T12:07:16.647Z,2944.00
2023-05-09T12:08:16.642Z,2940.00
2023-05-09T12:09:16.626Z,2924.00
2023-05-09T12:10:16.771Z,2888.00
2023-05-09T12:11:16.615Z,2916.00
2023-05-09T12:12:16.594Z,2912.00
2023-05-09T12:13:16.604Z,2924.00
2023-05-09T12:14:16.590Z,2908.00
2023-05-09T12:15:17.071Z,2848.00
2023-05-09T12:16:16.603Z,2848.00
2023-05-09T12:17:16.546Z,2840.00
2023-05-09T12:18:16.526Z,2832.00
2023-05-09T12:19:16.519Z,2836.00